首页
METAR-TAF:

METAR-TAF

机场 :

不伦瑞克, 德国

纬度: 52-18N, 经度: 010-27E, 海拔: 81米

当前天气观测

该预报发布于32分钟前的19:50 UTC
风速4节,风向
温度 22°C
湿度 43%
气压 1021 hPa
能见度10公里或以上
1500米以下无云,无积雨云

METAR: EDVE 241950Z 09004KT CAVOK 22/09 Q1021

时间: 22:22 (20:22 UTC)

预报

该预报发布于3小时和22分钟前的17:00 UTC
预报有效从24日的 18点(UTC)到 24日的 21点(UTC)
风速10节,风向东转东南
能见度10公里或以上
1500米以下无云,无积雨云
成为
从 24日的 19点(UTC)到 24日的 21点(UTC)
风速5节,风向

TAF: EDVE 241700Z 2418/2421 11010KT CAVOK BECMG 2419/2421 10005KT

超过4000个机场的气象观测和天气预报(METAR&TAF报告)。

可查询的气象台以黄色和红色小点在地图上表示。

将鼠标移到小点上方,可查看气象台名称。

然后点击查看天气观测和预报。

如需切换地图:点击带黑十字的绿色按钮放大地图;点击带横线的绿色按钮缩小地图;或者点击绿色箭头查看邻近地区的地图。


METAR-TAF: